createdAt,value
2022-12-16T00:02:02.386Z,100958.97
2022-12-16T00:07:03.856Z,100964.94
2022-12-16T00:12:05.605Z,100972.66
2022-12-16T00:17:07.109Z,100974.31
2022-12-16T00:22:08.679Z,100970.09
2022-12-16T00:27:10.743Z,100974.50
2022-12-16T00:32:12.399Z,100964.19
2022-12-16T00:37:14.090Z,100965.84
2022-12-16T00:42:15.497Z,100980.44
2022-12-16T00:47:16.987Z,100978.66
2022-12-16T00:52:18.396Z,100976.16
2022-12-16T00:57:20.860Z,100979.34
2022-12-16T01:02:22.470Z,100987.06
2022-12-16T01:07:24.325Z,100993.81
2022-12-16T01:12:25.752Z,100988.78
2022-12-16T01:17:27.608Z,100999.94
2022-12-16T01:22:32.601Z,100999.97
2022-12-16T01:27:34.216Z,101007.66
2022-12-16T01:32:36.029Z,101021.34
2022-12-16T01:37:37.603Z,101027.34
2022-12-16T01:42:39.127Z,101035.19
2022-12-16T01:47:40.631Z,101039.38
2022-12-16T01:52:46.406Z,101042.84
2022-12-16T01:57:51.923Z,101047.09
2022-12-16T02:02:58.284Z,101051.34
2022-12-16T02:08:14.244Z,101052.19
2022-12-16T02:13:25.769Z,101031.44
2022-12-16T02:18:52.194Z,101048.00
2022-12-16T02:24:29.845Z,101060.09
2022-12-16T02:29:56.267Z,101056.66
2022-12-16T02:35:26.946Z,101064.38
2022-12-16T02:40:41.892Z,101060.91
2022-12-16T02:45:44.300Z,101059.16
2022-12-16T02:50:50.704Z,101062.66
2022-12-16T02:56:10.687Z,101061.94
2022-12-16T03:01:22.747Z,101072.09
2022-12-16T03:06:26.434Z,101076.41
2022-12-16T03:11:30.623Z,101072.09
2022-12-16T03:16:34.584Z,101085.81
2022-12-16T03:21:47.731Z,101083.28
2022-12-16T03:27:10.707Z,101084.16
2022-12-16T03:32:17.949Z,101090.13
2022-12-16T03:37:23.431Z,101097.09
2022-12-16T03:42:25.150Z,101105.00
2022-12-16T03:47:29.131Z,101090.91
2022-12-16T03:52:30.729Z,101119.44
2022-12-16T03:57:32.211Z,101115.94
2022-12-16T04:02:33.886Z,101125.28
2022-12-16T04:07:35.512Z,101129.56
2022-12-16T04:12:55.605Z,101135.59
2022-12-16T04:18:20.283Z,101142.41
2022-12-16T04:23:43.318Z,101132.13
2022-12-16T04:28:44.732Z,101139.91
2022-12-16T04:34:04.955Z,101138.19
2022-12-16T04:39:25.071Z,101147.72
2022-12-16T04:44:45.156Z,101152.84
2022-12-16T04:50:05.080Z,101161.56
2022-12-16T04:55:26.158Z,101163.34
2022-12-16T05:00:46.193Z,101165.78
2022-12-16T05:06:06.343Z,101153.75
2022-12-16T05:11:26.239Z,101164.97
2022-12-16T05:16:46.467Z,101168.34
2022-12-16T05:22:06.547Z,101176.03
2022-12-16T05:27:26.708Z,101176.91
2022-12-16T05:32:46.945Z,101186.31
2022-12-16T05:38:07.111Z,101185.59
2022-12-16T05:43:27.347Z,101195.78
2022-12-16T05:48:47.962Z,101201.88
2022-12-16T05:54:08.015Z,101204.44
2022-12-16T05:59:27.839Z,101202.66
2022-12-16T06:04:47.862Z,101212.84
2022-12-16T06:10:08.070Z,101215.31
2022-12-16T06:15:29.210Z,101228.31
2022-12-16T06:20:49.295Z,101242.03
2022-12-16T06:26:09.548Z,101245.38
2022-12-16T06:31:30.172Z,101247.81
2022-12-16T06:36:50.128Z,101260.84
2022-12-16T06:42:10.212Z,101266.00
2022-12-16T06:47:30.485Z,101278.00
2022-12-16T06:52:50.635Z,101270.28
2022-12-16T06:58:18.355Z,101282.25
2022-12-16T07:03:38.516Z,101286.56
2022-12-16T07:08:58.816Z,101294.41
2022-12-16T07:14:19.035Z,101305.53
2022-12-16T07:19:39.159Z,101302.97
2022-12-16T07:24:59.208Z,101306.13
2022-12-16T07:30:19.238Z,101329.34
2022-12-16T07:35:39.403Z,101341.31
2022-12-16T07:40:59.431Z,101356.78
2022-12-16T07:46:19.665Z,101358.53
2022-12-16T07:51:39.501Z,101364.53
2022-12-16T07:56:59.761Z,101360.16
2022-12-16T08:02:20.177Z,101373.16
2022-12-16T08:07:40.292Z,101380.13
2022-12-16T08:13:00.348Z,101388.03
2022-12-16T08:18:21.124Z,101395.88
2022-12-16T08:23:41.131Z,101402.75
2022-12-16T08:29:20.281Z,101416.66
2022-12-16T08:34:41.375Z,101422.66
2022-12-16T08:40:18.039Z,101433.97
2022-12-16T08:45:41.947Z,101435.84
2022-12-16T08:51:01.895Z,101445.22
2022-12-16T08:56:22.104Z,101454.66
2022-12-16T09:01:42.334Z,101461.47
2022-12-16T09:07:02.223Z,101464.03
2022-12-16T09:12:22.338Z,101465.69
2022-12-16T09:17:42.552Z,101471.78
2022-12-16T09:23:02.443Z,101474.47
2022-12-16T09:28:42.315Z,101480.59
2022-12-16T09:34:02.481Z,101483.19
2022-12-16T09:39:22.361Z,101488.47
2022-12-16T09:44:54.592Z,101490.31
2022-12-16T09:50:29.259Z,101507.56
2022-12-16T09:55:55.118Z,101516.22
2022-12-16T10:01:17.432Z,101531.66
2022-12-16T10:07:10.163Z,101528.25
2022-12-16T10:12:42.275Z,101530.13
2022-12-16T10:18:12.796Z,101526.38
2022-12-16T10:23:46.343Z,101531.06
2022-12-16T10:29:12.001Z,101534.63
2022-12-16T10:34:53.986Z,101532.16
2022-12-16T10:40:17.634Z,101533.09
2022-12-16T10:45:47.332Z,101534.78
2022-12-16T10:51:07.438Z,101537.28
2022-12-16T10:56:33.300Z,101542.38
2022-12-16T11:01:53.628Z,101543.19
2022-12-16T11:07:14.418Z,101550.06
2022-12-16T11:12:49.965Z,101543.16
2022-12-16T11:18:32.501Z,101538.16
2022-12-16T11:23:52.287Z,101545.19
2022-12-16T11:29:35.061Z,101551.28
2022-12-16T11:34:55.710Z,101538.41
2022-12-16T11:40:16.311Z,101547.81
2022-12-16T11:45:39.500Z,101544.47
2022-12-16T11:51:13.141Z,101544.53
2022-12-16T11:56:42.409Z,101544.72
2022-12-16T12:02:16.635Z,101547.59
2022-12-16T12:08:02.402Z,101556.19
2022-12-16T12:13:46.329Z,101558.84
2022-12-16T12:19:22.154Z,101550.19
2022-12-16T12:24:58.203Z,101571.66
2022-12-16T12:30:28.962Z,101563.75
2022-12-16T12:35:58.408Z,101571.41
2022-12-16T12:41:37.126Z,101578.03
2022-12-16T12:47:07.926Z,101589.22
2022-12-16T12:52:28.836Z,101588.34
2022-12-16T12:57:51.391Z,101589.03
2022-12-16T13:03:21.446Z,101591.63
2022-12-16T13:08:51.688Z,101596.69
2022-12-16T13:14:11.575Z,101599.16
2022-12-16T13:19:50.075Z,101599.91
2022-12-16T13:25:10.242Z,101601.56
2022-12-16T13:30:30.472Z,101606.59
2022-12-16T13:36:04.380Z,101611.72
2022-12-16T13:41:44.654Z,101619.31
2022-12-16T13:47:05.965Z,101626.03
2022-12-16T13:52:35.149Z,101633.59
2022-12-16T13:57:59.829Z,101630.84
2022-12-16T14:03:23.140Z,101615.94
2022-12-16T14:08:43.945Z,101635.59
2022-12-16T14:14:22.425Z,101644.03
2022-12-16T14:19:45.636Z,101648.16
2022-12-16T14:25:05.731Z,101650.59
2022-12-16T14:30:39.248Z,101648.59
2022-12-16T14:36:08.454Z,101653.59
2022-12-16T14:41:33.865Z,101647.19
2022-12-16T14:46:55.070Z,101669.53
2022-12-16T14:52:15.104Z,101667.50
2022-12-16T14:57:37.815Z,101671.47
2022-12-16T15:03:04.347Z,101682.06
2022-12-16T15:08:28.145Z,101682.53
2022-12-16T15:13:48.821Z,101692.44
2022-12-16T15:19:17.404Z,101692.16
2022-12-16T15:24:41.285Z,101696.03
2022-12-16T15:30:01.459Z,101701.66
2022-12-16T15:35:21.464Z,101709.34
2022-12-16T15:40:46.110Z,101724.69
2022-12-16T15:46:13.112Z,101719.41
2022-12-16T15:51:51.261Z,101731.38
2022-12-16T15:57:11.483Z,101726.97
2022-12-16T16:02:44.695Z,101731.38
2022-12-16T16:08:05.772Z,101733.09
2022-12-16T16:13:27.223Z,101733.75
2022-12-16T16:18:47.356Z,101745.84
2022-12-16T16:24:07.378Z,101757.69
2022-12-16T16:29:29.170Z,101765.31
2022-12-16T16:34:49.342Z,101770.56
2022-12-16T16:40:09.524Z,101772.25
2022-12-16T16:45:31.091Z,101780.81
2022-12-16T16:50:51.365Z,101781.78
2022-12-16T16:56:18.175Z,101794.59
2022-12-16T17:01:39.973Z,101799.81
2022-12-16T17:07:00.027Z,101794.53
2022-12-16T17:12:20.192Z,101805.56
2022-12-16T17:17:40.443Z,101805.63
2022-12-16T17:23:00.518Z,101814.03
2022-12-16T17:28:21.260Z,101829.22
2022-12-16T17:33:41.176Z,101824.13
2022-12-16T17:39:02.962Z,101828.28
2022-12-16T17:44:23.115Z,101823.13
2022-12-16T17:49:43.253Z,101817.88
2022-12-16T17:55:03.086Z,101824.47
2022-12-16T18:00:23.827Z,101824.16
2022-12-16T18:05:44.809Z,101826.44
2022-12-16T18:11:04.968Z,101825.97
2022-12-16T18:16:25.245Z,101840.94
2022-12-16T18:21:45.471Z,101837.63
2022-12-16T18:27:05.602Z,101833.94
2022-12-16T18:32:28.307Z,101845.03
2022-12-16T18:37:50.816Z,101858.13
2022-12-16T18:43:10.593Z,101863.84
2022-12-16T18:48:30.403Z,101864.94
2022-12-16T18:53:50.474Z,101873.44
2022-12-16T18:59:12.631Z,101880.09
2022-12-16T19:04:32.744Z,101886.00
2022-12-16T19:09:52.921Z,101882.59
2022-12-16T19:15:12.956Z,101884.19
2022-12-16T19:20:33.411Z,101886.06
2022-12-16T19:25:53.429Z,101894.22
2022-12-16T19:31:14.558Z,101904.09
2022-12-16T19:36:34.728Z,101905.78
2022-12-16T19:41:56.208Z,101905.72
2022-12-16T19:47:16.391Z,101909.78
2022-12-16T19:52:36.579Z,101909.69
2022-12-16T19:57:56.585Z,101916.97
2022-12-16T20:03:16.896Z,101920.88
2022-12-16T20:08:50.987Z,101926.38
2022-12-16T20:14:15.008Z,101926.53
2022-12-16T20:19:34.988Z,101931.66
2022-12-16T20:24:56.289Z,101933.09
2022-12-16T20:30:16.627Z,101935.28
2022-12-16T20:35:56.603Z,101934.63
2022-12-16T20:41:21.784Z,101951.66
2022-12-16T20:46:41.831Z,101952.81
2022-12-16T20:52:01.691Z,101958.59
2022-12-16T20:57:22.066Z,101959.78
2022-12-16T21:02:42.190Z,101969.38
2022-12-16T21:08:02.651Z,101964.03
2022-12-16T21:13:31.771Z,101971.28
2022-12-16T21:18:51.843Z,101976.84
2022-12-16T21:24:12.082Z,101988.88
2022-12-16T21:29:32.066Z,101992.00
2022-12-16T21:35:06.047Z,102002.88
2022-12-16T21:40:27.035Z,102002.41
2022-12-16T21:45:47.187Z,102002.75
2022-12-16T21:51:13.443Z,102021.84
2022-12-16T21:56:33.787Z,102016.59
2022-12-16T22:01:53.945Z,102018.81
2022-12-16T22:07:16.498Z,102017.16
2022-12-16T22:12:36.404Z,102021.63
2022-12-16T22:17:58.511Z,102022.97
2022-12-16T22:23:36.884Z,102025.06
2022-12-16T22:28:57.018Z,102022.09
2022-12-16T22:34:17.967Z,102019.56
2022-12-16T22:39:44.440Z,102013.50
2022-12-16T22:45:04.932Z,102024.09
2022-12-16T22:50:25.371Z,102031.69
2022-12-16T22:55:45.572Z,102035.81
2022-12-16T23:01:05.795Z,102045.13
2022-12-16T23:06:27.998Z,102053.59
2022-12-16T23:11:56.594Z,102049.31
2022-12-16T23:17:17.023Z,102051.44
2022-12-16T23:22:37.170Z,102054.28
2022-12-16T23:27:57.320Z,102053.50
2022-12-16T23:33:18.912Z,102063.31
2022-12-16T23:38:39.161Z,102073.31
2022-12-16T23:43:59.031Z,102068.78
2022-12-16T23:49:18.846Z,102063.13
2022-12-16T23:54:39.014Z,102063.13
2022-12-16T23:59:59.423Z,102069.28
